Jaume II — EAES — position and weather

sailwx.info

Track history (hours):
 
Tides and Currents Weather Stations Pressure Air Temp Water Temp Dewpoint Dewpoint Depression Visibility Wind Speed Wind Dir Waves Ship Positions

Jaume II

Last reported at 2018-Jun-22 07:34 UTC. Time now 2018-Jun-22 11:25 UTC.
Position N 40°47' E 002°52'.

; draft 3.2 m.

Type: Ship. MMSI: 224195530.

Date/timePositionNaut miles runAvg speedWind from/ knotsBaromVisibWave heightAir tempDewpointWater temp
2018-Jun-22 07:34N 40°47' E 002°52'335.8
2018-Jun-22 07:30N 40°49' E 002°50'1735.5
2018-Jun-22 07:01N 41°02' E 002°34'1835.4
2018-Jun-22 06:30N 41°15' E 002°19'1018.5
2018-Jun-22 05:59N 41°22' E 002°11'0 0.0
2018-Jun-22 05:30N 41°22' E 002°11'0 0.0
2018-Jun-21 20:27N 41°22' E 002°11'2 5.1
2018-Jun-21 20:01N 41°21' E 002°12'1835.8
2018-Jun-21 19:31N 41°07' E 002°28'1836.9
2018-Jun-21 19:01N 40°54' E 002°44'1937.4
2018-Jun-21 18:31N 40°40' E 003°01'50 6.7
2018-Jun-21 10:58N 39°50' E 003°09'2814.1
2018-Jun-21 08:58N 40°09' E 003°36'2036.6
2018-Jun-21 08:25N 40°24' E 003°19'1536.3
2018-Jun-21 08:00N 40°35' E 003°06'1836.2
2018-Jun-21 07:30N 40°49' E 002°50'1835.9
2018-Jun-21 07:00N 41°02' E 002°34'1835.6
2018-Jun-21 06:31N 41°15' E 002°18'9 0.3
2018-Jun-19 20:00N 41°22' E 002°11'1325.6
2018-Jun-19 19:31N 41°13' E 002°22'1936.5
2018-Jun-19 19:00N 40°59' E 002°39'73 8.8
2018-Jun-19 10:45N 39°50' E 003°08'8519.3
2018-Jun-19 06:22N 41°08' E 002°27'1336.7
2018-Jun-19 06:00N 41°18' E 002°15'6 0.6
2018-Jun-18 20:11N 41°22' E 002°11'1 4.9
2018-Jun-18 20:00N 41°22' E 002°11'1530.6
2018-Jun-18 19:31N 41°11' E 002°25'1937.3
2018-Jun-18 19:01N 40°57' E 002°42'2837.0
2018-Jun-18 18:15N 40°35' E 003°05'45 6.1
2018-Jun-18 10:50N 39°50' E 003°08'8719.5
2018-Jun-18 06:22N 41°10' E 002°24'1335.8
2018-Jun-18 06:01N 41°20' E 002°13'3 0.3
2018-Jun-17 20:06N 41°22' E 002°11'0 4.1
2018-Jun-17 20:01N 41°22' E 002°11'1223.5
2018-Jun-17 19:30N 41°13' E 002°21'2 0.2
2018-Jun-17 06:12N 41°12' E 002°23'736.6
2018-Jun-17 06:01N 41°17' E 002°16'7 0.7
2018-Jun-16 20:12N 41°22' E 002°11'1 4.7
2018-Jun-16 20:00N 41°22' E 002°11'1429.0
2018-Jun-16 19:31N 41°11' E 002°24'1731.2
2018-Jun-16 18:58N 40°59' E 002°38'15 1.3
2018-Jun-16 06:41N 41°10' E 002°24'735.8
2018-Jun-16 06:30N 41°15' E 002°19'10 0.9
2018-Jun-15 20:13N 41°22' E 002°11'1 4.6
2018-Jun-15 20:01N 41°22' E 002°11'1122.4
2018-Jun-15 19:31N 41°13' E 002°21'2037.3
2018-Jun-15 18:58N 40°58' E 002°39'16 1.3
2018-Jun-15 06:28N 41°10' E 002°25'1430.2
2018-Jun-15 06:01N 41°20' E 002°12'3 0.1
2018-Jun-14 10:07N 41°22' E 002°11'0 2.6
2018-Jun-14 10:00N 41°22' E 002°11'0 0.7
2018-Jun-14 09:29N 41°22' E 002°11'0 0.0
2018-Jun-12 11:48N 41°22' E 002°11'412.0
2018-Jun-12 11:30N 41°20' E 002°14'1224.5
2018-Jun-12 11:00N 41°09' E 002°06'  
Track history (hours):
 
Tides and Currents Weather Stations Pressure Air Temp Water Temp Dewpoint Dewpoint Depression Visibility Wind Speed Wind Dir Waves Ship Positions

Jaume II

Last reported at 2018-Jun-22 07:34 UTC. Time now 2018-Jun-22 11:25 UTC.
Position N 40°47' E 002°52'.

; draft 3.2 m.

Type: Ship. MMSI: 224195530.

Date/timePositionNaut miles runAvg speedWind from/ knotsBaromVisibWave heightAir tempDewpointWater temp
2018-Jun-22 07:34N 40°47' E 002°52'335.8
2018-Jun-22 07:30N 40°49' E 002°50'1735.5
2018-Jun-22 07:01N 41°02' E 002°34'1835.4
2018-Jun-22 06:30N 41°15' E 002°19'1018.5
2018-Jun-22 05:59N 41°22' E 002°11'0 0.0
2018-Jun-22 05:30N 41°22' E 002°11'0 0.0
2018-Jun-21 20:27N 41°22' E 002°11'2 5.1
2018-Jun-21 20:01N 41°21' E 002°12'1835.8
2018-Jun-21 19:31N 41°07' E 002°28'1836.9
2018-Jun-21 19:01N 40°54' E 002°44'1937.4
2018-Jun-21 18:31N 40°40' E 003°01'50 6.7
2018-Jun-21 10:58N 39°50' E 003°09'2814.1
2018-Jun-21 08:58N 40°09' E 003°36'2036.6
2018-Jun-21 08:25N 40°24' E 003°19'1536.3
2018-Jun-21 08:00N 40°35' E 003°06'1836.2
2018-Jun-21 07:30N 40°49' E 002°50'1835.9
2018-Jun-21 07:00N 41°02' E 002°34'1835.6
2018-Jun-21 06:31N 41°15' E 002°18'9 0.3
2018-Jun-19 20:00N 41°22' E 002°11'1325.6
2018-Jun-19 19:31N 41°13' E 002°22'1936.5
2018-Jun-19 19:00N 40°59' E 002°39'73 8.8
2018-Jun-19 10:45N 39°50' E 003°08'8519.3
2018-Jun-19 06:22N 41°08' E 002°27'1336.7
2018-Jun-19 06:00N 41°18' E 002°15'6 0.6
2018-Jun-18 20:11N 41°22' E 002°11'1 4.9
2018-Jun-18 20:00N 41°22' E 002°11'1530.6
2018-Jun-18 19:31N 41°11' E 002°25'1937.3
2018-Jun-18 19:01N 40°57' E 002°42'2837.0
2018-Jun-18 18:15N 40°35' E 003°05'45 6.1
2018-Jun-18 10:50N 39°50' E 003°08'8719.5
2018-Jun-18 06:22N 41°10' E 002°24'1335.8
2018-Jun-18 06:01N 41°20' E 002°13'3 0.3
2018-Jun-17 20:06N 41°22' E 002°11'0 4.1
2018-Jun-17 20:01N 41°22' E 002°11'1223.5
2018-Jun-17 19:30N 41°13' E 002°21'2 0.2
2018-Jun-17 06:12N 41°12' E 002°23'736.6
2018-Jun-17 06:01N 41°17' E 002°16'7 0.7
2018-Jun-16 20:12N 41°22' E 002°11'1 4.7
2018-Jun-16 20:00N 41°22' E 002°11'1429.0
2018-Jun-16 19:31N 41°11' E 002°24'1731.2
2018-Jun-16 18:58N 40°59' E 002°38'15 1.3
2018-Jun-16 06:41N 41°10' E 002°24'735.8
2018-Jun-16 06:30N 41°15' E 002°19'10 0.9
2018-Jun-15 20:13N 41°22' E 002°11'1 4.6
2018-Jun-15 20:01N 41°22' E 002°11'1122.4
2018-Jun-15 19:31N 41°13' E 002°21'2037.3
2018-Jun-15 18:58N 40°58' E 002°39'16 1.3
2018-Jun-15 06:28N 41°10' E 002°25'1430.2
2018-Jun-15 06:01N 41°20' E 002°12'3 0.1
2018-Jun-14 10:07N 41°22' E 002°11'0 2.6
2018-Jun-14 10:00N 41°22' E 002°11'0 0.7
2018-Jun-14 09:29N 41°22' E 002°11'0 0.0
2018-Jun-12 11:48N 41°22' E 002°11'412.0
2018-Jun-12 11:30N 41°20' E 002°14'1224.5
2018-Jun-12 11:00N 41°09' E 002°06'  

Dump ship's entire track history